createdAt,value
2018-02-10T00:01:13.976Z,88.61
2018-02-10T00:03:43.125Z,88.22
2018-02-10T00:06:12.282Z,87.95
2018-02-10T00:08:41.492Z,89.34
2018-02-10T00:11:10.632Z,89.58
2018-02-10T00:13:40.498Z,90.28
2018-02-10T00:16:09.827Z,90.16
2018-02-10T00:18:39.229Z,87.09
2018-02-10T00:21:08.811Z,88.35
2018-02-10T00:23:37.908Z,88.24
2018-02-10T00:26:07.529Z,90.97
2018-02-10T00:28:37.017Z,91.60
2018-02-10T00:31:06.244Z,89.23
2018-02-10T00:33:35.649Z,91.34
2018-02-10T00:36:05.330Z,90.33
2018-02-10T00:38:35.052Z,90.74
2018-02-10T00:41:04.651Z,88.82
2018-02-10T00:43:34.347Z,88.34
2018-02-10T00:46:03.852Z,86.75
2018-02-10T00:48:33.128Z,89.20
2018-02-10T00:51:02.485Z,88.35
2018-02-10T00:53:31.908Z,89.48
2018-02-10T00:56:00.978Z,87.70
2018-02-10T00:58:30.114Z,87.44
2018-02-10T01:00:59.653Z,89.14
2018-02-10T01:03:28.664Z,89.31
2018-02-10T01:05:58.226Z,90.33
2018-02-10T01:08:27.526Z,88.88
2018-02-10T01:10:57.268Z,89.12
2018-02-10T01:13:26.662Z,89.58
2018-02-10T01:15:55.806Z,90.51
2018-02-10T01:18:25.217Z,90.28
2018-02-10T01:20:54.399Z,90.79
2018-02-10T01:23:23.734Z,89.23
2018-02-10T01:25:53.132Z,89.61
2018-02-10T01:28:22.590Z,91.65
2018-02-10T01:30:52.091Z,90.98
2018-02-10T01:33:21.913Z,87.82
2018-02-10T01:35:51.517Z,90.12
2018-02-10T01:38:20.813Z,90.98
2018-02-10T01:40:50.635Z,92.12
2018-02-10T01:43:20.344Z,93.04
2018-02-10T01:45:49.545Z,90.66
2018-02-10T01:48:18.984Z,89.88
2018-02-10T01:50:48.230Z,89.17
2018-02-10T01:53:17.690Z,90.18
2018-02-10T01:55:46.954Z,91.42
2018-02-10T01:58:16.460Z,90.76
2018-02-10T02:00:46.258Z,88.35
2018-02-10T02:03:15.667Z,88.41
2018-02-10T02:05:45.046Z,88.39
2018-02-10T02:08:14.470Z,89.75
2018-02-10T02:10:43.966Z,89.08
2018-02-10T02:13:13.460Z,88.04
2018-02-10T02:15:42.782Z,92.10
2018-02-10T02:18:12.128Z,90.89
2018-02-10T02:20:41.444Z,91.02
2018-02-10T02:23:11.147Z,90.54
2018-02-10T02:25:40.904Z,88.82
2018-02-10T02:28:10.544Z,88.27
2018-02-10T02:30:40.232Z,88.55
2018-02-10T02:33:09.598Z,89.32
2018-02-10T02:35:39.170Z,89.59
2018-02-10T02:38:08.952Z,90.41
2018-02-10T02:40:38.725Z,90.17
2018-02-10T02:43:08.590Z,88.02
2018-02-10T02:45:38.287Z,89.71
2018-02-10T02:48:07.709Z,88.44
2018-02-10T02:50:37.108Z,88.66
2018-02-10T02:53:06.381Z,89.45
2018-02-10T02:55:36.070Z,88.12
2018-02-10T02:58:05.390Z,88.10
2018-02-10T03:00:34.797Z,89.01
2018-02-10T03:03:04.337Z,88.35
2018-02-10T03:05:33.705Z,88.57
2018-02-10T03:08:03.116Z,89.11
2018-02-10T03:10:32.656Z,89.33
2018-02-10T03:13:01.735Z,88.33
2018-02-10T03:15:31.162Z,88.08
2018-02-10T03:18:00.449Z,87.45
2018-02-10T03:20:29.781Z,87.31
2018-02-10T03:22:59.419Z,87.40
2018-02-10T03:25:28.946Z,87.42
2018-02-10T03:27:58.368Z,88.45
2018-02-10T03:30:27.810Z,88.93
2018-02-10T03:32:57.552Z,88.66
2018-02-10T03:35:27.985Z,88.85
2018-02-10T03:37:57.302Z,87.67
2018-02-10T03:40:26.902Z,86.91
2018-02-10T03:42:56.203Z,87.16
2018-02-10T03:45:25.833Z,87.67
2018-02-10T03:47:55.312Z,86.35
2018-02-10T03:50:24.629Z,85.88
2018-02-10T03:52:53.625Z,89.12
2018-02-10T03:55:23.704Z,90.46
2018-02-10T03:57:53.089Z,90.33
2018-02-10T04:00:22.586Z,89.58
2018-02-10T04:02:52.140Z,85.17
2018-02-10T04:05:21.733Z,84.88
2018-02-10T04:07:50.994Z,85.58
2018-02-10T04:10:20.451Z,88.80
2018-02-10T04:12:49.565Z,89.94
2018-02-10T04:15:19.089Z,91.05
2018-02-10T04:17:48.833Z,91.62
2018-02-10T04:20:18.262Z,91.60
2018-02-10T04:22:47.824Z,92.24
2018-02-10T04:25:17.380Z,92.16
2018-02-10T04:27:47.008Z,90.97
2018-02-10T04:30:16.478Z,90.58
2018-02-10T04:32:46.058Z,88.98
2018-02-10T04:35:15.668Z,90.03
2018-02-10T04:37:45.143Z,90.30
2018-02-10T04:40:14.596Z,89.86
2018-02-10T04:42:44.003Z,89.01
2018-02-10T04:45:13.515Z,90.94
2018-02-10T04:47:42.964Z,91.00
2018-02-10T04:50:12.384Z,89.58
2018-02-10T04:52:41.965Z,88.18
2018-02-10T04:55:11.374Z,88.28
2018-02-10T04:57:40.754Z,87.54
2018-02-10T05:00:10.309Z,87.01
2018-02-10T05:02:40.033Z,87.35
2018-02-10T05:05:10.185Z,87.50
2018-02-10T05:07:39.509Z,86.17
2018-02-10T05:10:09.300Z,88.11
2018-02-10T05:12:38.679Z,87.60
2018-02-10T05:15:07.858Z,86.08
2018-02-10T05:17:37.137Z,88.27
2018-02-10T05:20:06.540Z,88.15
2018-02-10T05:22:36.194Z,87.44
2018-02-10T05:25:05.744Z,88.52
2018-02-10T05:27:35.120Z,87.42
2018-02-10T05:30:04.529Z,86.03
2018-02-10T05:32:34.995Z,86.13
2018-02-10T05:35:04.401Z,86.98
2018-02-10T05:37:33.573Z,88.49
2018-02-10T05:40:02.610Z,86.53
2018-02-10T05:42:31.994Z,85.48
2018-02-10T05:45:01.219Z,85.09
2018-02-10T05:47:30.640Z,84.60
2018-02-10T05:50:00.131Z,84.21
2018-02-10T05:52:29.420Z,84.26
2018-02-10T05:54:58.620Z,84.27
2018-02-10T05:57:28.014Z,84.09
2018-02-10T05:59:57.098Z,85.00
2018-02-10T06:02:26.230Z,84.62
2018-02-10T06:04:55.436Z,84.99
2018-02-10T06:07:24.737Z,84.78
2018-02-10T06:09:53.829Z,84.18
2018-02-10T06:12:23.066Z,83.01
2018-02-10T06:14:52.229Z,83.18
2018-02-10T06:17:21.735Z,82.92
2018-02-10T06:19:50.902Z,83.07
2018-02-10T06:22:20.068Z,83.68
2018-02-10T06:24:49.539Z,83.42
2018-02-10T06:27:18.832Z,82.75
2018-02-10T06:29:47.721Z,81.41
2018-02-10T06:32:16.758Z,83.29
2018-02-10T06:34:45.767Z,83.69
2018-02-10T06:37:15.219Z,81.55
2018-02-10T06:39:44.617Z,81.41
2018-02-10T06:42:13.633Z,79.58
2018-02-10T06:44:42.819Z,78.89
2018-02-10T06:47:11.730Z,79.73
2018-02-10T06:49:41.146Z,79.27
2018-02-10T06:52:10.623Z,76.41
2018-02-10T06:54:39.984Z,78.51
2018-02-10T06:57:09.459Z,77.03
2018-02-10T06:59:39.029Z,78.05
2018-02-10T07:02:08.799Z,75.56
2018-02-10T07:04:38.356Z,76.05
2018-02-10T07:07:08.094Z,76.84
2018-02-10T07:09:37.328Z,75.11
2018-02-10T07:12:07.066Z,74.92
2018-02-10T07:14:36.761Z,74.82
2018-02-10T07:17:06.230Z,75.38
2018-02-10T07:19:35.479Z,75.11
2018-02-10T07:22:04.884Z,75.82
2018-02-10T07:24:34.597Z,74.82
2018-02-10T07:27:03.918Z,73.37
2018-02-10T07:29:33.714Z,73.32
2018-02-10T07:32:03.129Z,73.74
2018-02-10T07:34:32.466Z,73.77
2018-02-10T07:37:02.048Z,73.87
2018-02-10T07:39:31.238Z,71.96
2018-02-10T07:42:01.031Z,75.49
2018-02-10T07:44:30.784Z,73.20
2018-02-10T07:47:00.266Z,73.59
2018-02-10T07:49:29.847Z,74.08
2018-02-10T07:51:58.917Z,75.81
2018-02-10T07:54:27.974Z,74.69
2018-02-10T07:56:57.718Z,74.06
2018-02-10T07:59:27.009Z,75.48
2018-02-10T08:01:56.289Z,74.64
2018-02-10T08:04:25.725Z,74.67
2018-02-10T08:06:55.058Z,75.69
2018-02-10T08:09:24.580Z,76.87
2018-02-10T08:11:53.901Z,78.37
2018-02-10T08:14:23.675Z,77.66
2018-02-10T08:16:52.892Z,77.60
2018-02-10T08:19:22.381Z,76.85
2018-02-10T08:21:52.601Z,75.75
2018-02-10T08:24:22.069Z,75.75
2018-02-10T08:26:51.566Z,72.20
2018-02-10T08:29:21.093Z,74.06
2018-02-10T08:31:50.672Z,74.57
2018-02-10T08:34:20.163Z,72.54
2018-02-10T08:36:49.569Z,72.62
2018-02-10T08:39:19.092Z,72.86
2018-02-10T08:41:48.611Z,74.99
2018-02-10T08:44:18.009Z,73.57
2018-02-10T08:46:47.894Z,74.23
2018-02-10T08:49:17.346Z,74.42
2018-02-10T08:51:46.893Z,74.42
2018-02-10T08:54:16.036Z,75.65
2018-02-10T08:56:45.278Z,75.73
2018-02-10T08:59:14.545Z,76.72
2018-02-10T09:01:43.854Z,76.87
2018-02-10T09:04:13.629Z,77.68
2018-02-10T09:06:42.868Z,78.70
2018-02-10T09:09:11.965Z,79.29
2018-02-10T09:11:41.101Z,78.80
2018-02-10T09:14:09.953Z,78.41
2018-02-10T09:16:39.267Z,78.84
2018-02-10T09:19:08.180Z,79.87
2018-02-10T09:21:37.564Z,78.11
2018-02-10T09:24:06.955Z,78.54
2018-02-10T09:26:36.122Z,79.71
2018-02-10T09:29:05.250Z,79.01
2018-02-10T09:31:34.505Z,78.63
2018-02-10T09:34:03.598Z,80.07
2018-02-10T09:36:32.850Z,80.33
2018-02-10T09:39:02.392Z,80.24
2018-02-10T09:41:31.489Z,81.39
2018-02-10T09:44:00.617Z,81.22
2018-02-10T09:46:29.862Z,80.54
2018-02-10T09:48:59.145Z,80.80
2018-02-10T09:51:28.441Z,80.01
2018-02-10T09:53:57.740Z,79.73
2018-02-10T09:56:26.797Z,79.05
2018-02-10T09:58:56.110Z,79.54
2018-02-10T10:01:25.282Z,79.70
2018-02-10T10:03:54.681Z,80.52
2018-02-10T10:06:23.985Z,79.56
2018-02-10T10:08:53.451Z,79.48
2018-02-10T10:11:22.689Z,79.36
2018-02-10T10:13:51.955Z,78.46
2018-02-10T10:16:21.107Z,78.59
2018-02-10T10:18:50.296Z,79.75
2018-02-10T10:21:19.585Z,81.13
2018-02-10T10:23:48.664Z,80.65
2018-02-10T10:26:17.686Z,82.33
2018-02-10T10:28:47.078Z,81.06
2018-02-10T10:31:16.561Z,81.27
2018-02-10T10:33:45.744Z,80.40
2018-02-10T10:36:15.402Z,80.47
2018-02-10T10:38:44.657Z,79.94
2018-02-10T10:41:13.624Z,81.23
2018-02-10T10:43:42.620Z,82.08
2018-02-10T10:46:11.704Z,79.36
2018-02-10T10:48:41.533Z,81.32
2018-02-10T10:51:11.403Z,81.80
2018-02-10T10:53:40.749Z,79.57
2018-02-10T10:56:09.653Z,80.29
2018-02-10T10:58:38.821Z,79.86
2018-02-10T11:01:07.947Z,80.46
2018-02-10T11:03:37.461Z,81.18
2018-02-10T11:06:06.967Z,79.33
2018-02-10T11:08:36.470Z,79.12
2018-02-10T11:11:06.083Z,79.50
2018-02-10T11:13:35.288Z,80.49
2018-02-10T11:16:04.696Z,78.84
2018-02-10T11:18:34.115Z,79.08
2018-02-10T11:21:03.174Z,78.40
2018-02-10T11:23:32.382Z,80.81
2018-02-10T11:26:01.590Z,79.84
2018-02-10T11:28:31.101Z,79.75
2018-02-10T11:31:00.247Z,80.12
2018-02-10T11:33:29.833Z,81.08
2018-02-10T11:35:59.218Z,80.40
2018-02-10T11:38:28.626Z,81.37
2018-02-10T11:40:58.007Z,81.11
2018-02-10T11:43:27.576Z,80.69
2018-02-10T11:45:57.010Z,81.98
2018-02-10T11:48:26.336Z,82.90
2018-02-10T11:50:55.610Z,81.26
2018-02-10T11:53:24.701Z,81.65
2018-02-10T11:55:54.087Z,82.54
2018-02-10T11:58:23.329Z,83.03
2018-02-10T12:00:52.730Z,82.66
2018-02-10T12:03:21.977Z,81.89
2018-02-10T12:05:51.302Z,81.08
2018-02-10T12:08:20.916Z,80.82
2018-02-10T12:10:50.228Z,82.22
2018-02-10T12:13:19.820Z,81.99
2018-02-10T12:15:48.948Z,82.13
2018-02-10T12:18:18.050Z,81.48
2018-02-10T12:20:47.326Z,82.92
2018-02-10T12:23:16.945Z,82.33
2018-02-10T12:25:46.430Z,82.43
2018-02-10T12:28:15.892Z,81.82
2018-02-10T12:30:45.097Z,82.37
2018-02-10T12:33:14.329Z,82.71
2018-02-10T12:35:43.779Z,83.21
2018-02-10T12:38:13.417Z,82.94
2018-02-10T12:40:43.121Z,82.93
2018-02-10T12:43:13.169Z,82.46
2018-02-10T12:45:42.781Z,83.25
2018-02-10T12:48:17.709Z,84.94
2018-02-10T12:50:47.128Z,83.73
2018-02-10T12:53:16.407Z,84.19
2018-02-10T12:55:45.897Z,84.32
2018-02-10T12:58:15.297Z,83.59
2018-02-10T13:00:44.434Z,84.51
2018-02-10T13:03:14.727Z,83.74
2018-02-10T13:05:43.956Z,83.72
2018-02-10T13:08:13.234Z,84.42
2018-02-10T13:10:43.066Z,84.87
2018-02-10T13:13:12.457Z,85.09
2018-02-10T13:15:42.016Z,85.14
2018-02-10T13:18:11.316Z,84.86
2018-02-10T13:20:40.630Z,83.99
2018-02-10T13:23:10.147Z,84.47
2018-02-10T13:25:39.694Z,84.12
2018-02-10T13:28:09.024Z,84.64
2018-02-10T13:30:38.496Z,85.25
2018-02-10T13:33:08.440Z,86.37
2018-02-10T13:35:37.828Z,84.91
2018-02-10T13:38:07.266Z,84.52
2018-02-10T13:40:36.793Z,84.64
2018-02-10T13:43:06.248Z,84.21
2018-02-10T13:45:35.718Z,84.20
2018-02-10T13:48:05.076Z,85.43
2018-02-10T13:50:34.697Z,85.94
2018-02-10T13:53:03.994Z,87.00
2018-02-10T13:55:33.165Z,86.45
2018-02-10T13:58:02.305Z,86.56
2018-02-10T14:00:31.856Z,85.38
2018-02-10T14:03:02.017Z,86.24
2018-02-10T14:05:31.406Z,87.26
2018-02-10T14:08:00.782Z,86.88
2018-02-10T14:10:30.360Z,86.79
2018-02-10T14:13:00.038Z,86.65
2018-02-10T14:15:29.409Z,86.79
2018-02-10T14:17:58.825Z,87.30
2018-02-10T14:20:28.096Z,86.34
2018-02-10T14:22:57.633Z,86.24
2018-02-10T14:25:27.821Z,86.69
2018-02-10T14:27:57.528Z,86.14
2018-02-10T14:30:27.949Z,85.97
2018-02-10T14:32:57.468Z,86.07
2018-02-10T14:35:28.638Z,85.72
2018-02-10T14:37:58.034Z,86.11
2018-02-10T14:40:27.614Z,86.43
2018-02-10T14:42:57.104Z,86.72
2018-02-10T14:45:26.943Z,86.67
2018-02-10T14:47:56.423Z,85.54
2018-02-10T14:50:25.567Z,87.15
2018-02-10T14:52:55.052Z,88.41
2018-02-10T14:55:24.744Z,88.53
2018-02-10T14:57:53.873Z,87.46
2018-02-10T15:00:23.454Z,87.80
2018-02-10T15:02:52.967Z,87.34
2018-02-10T15:05:22.873Z,87.79
2018-02-10T15:07:52.112Z,86.28
2018-02-10T15:10:21.568Z,86.38
2018-02-10T15:12:50.868Z,86.20
2018-02-10T15:15:20.249Z,86.96
2018-02-10T15:17:50.186Z,86.64
2018-02-10T15:20:20.006Z,86.39
2018-02-10T15:22:49.632Z,86.57
2018-02-10T15:25:19.122Z,87.32
2018-02-10T15:27:48.523Z,87.72
2018-02-10T15:30:29.188Z,86.00
2018-02-10T15:33:09.206Z,86.39
2018-02-10T15:35:38.739Z,86.75
2018-02-10T15:38:08.050Z,85.20
2018-02-10T15:40:37.873Z,85.28
2018-02-10T15:43:07.482Z,86.22
2018-02-10T15:45:36.837Z,86.69
2018-02-10T15:48:06.248Z,87.42
2018-02-10T15:50:35.575Z,87.83
2018-02-10T15:53:04.855Z,87.89
2018-02-10T15:55:34.338Z,88.23
2018-02-10T15:58:04.111Z,87.89
2018-02-10T16:00:33.454Z,88.27
2018-02-10T16:03:02.844Z,88.15
2018-02-10T16:05:32.281Z,88.47
2018-02-10T16:08:01.895Z,89.25
2018-02-10T16:10:31.140Z,89.00
2018-02-10T16:13:00.566Z,88.53
2018-02-10T16:15:30.068Z,88.67
2018-02-10T16:17:59.322Z,88.16
2018-02-10T16:20:28.721Z,88.03
2018-02-10T16:22:58.335Z,87.61
2018-02-10T16:25:28.174Z,87.54
2018-02-10T16:27:57.738Z,87.54
2018-02-10T16:30:27.073Z,87.91
2018-02-10T16:32:56.262Z,87.01
2018-02-10T16:35:25.759Z,87.60
2018-02-10T16:37:55.468Z,86.86
2018-02-10T16:40:25.014Z,86.31
2018-02-10T16:42:54.182Z,86.48
2018-02-10T16:45:23.369Z,86.36
2018-02-10T16:47:52.901Z,86.45
2018-02-10T16:50:22.619Z,85.91
2018-02-10T16:52:51.922Z,85.45
2018-02-10T16:55:21.424Z,85.31
2018-02-10T16:57:50.762Z,85.51
2018-02-10T17:00:20.177Z,84.91
2018-02-10T17:02:49.379Z,85.26
2018-02-10T17:05:18.664Z,85.24
2018-02-10T17:07:48.061Z,85.18
2018-02-10T17:10:17.542Z,85.13
2018-02-10T17:12:46.974Z,85.89
2018-02-10T17:15:16.069Z,85.60
2018-02-10T17:17:45.296Z,86.09
2018-02-10T17:20:15.120Z,85.13
2018-02-10T17:22:44.445Z,85.45
2018-02-10T17:25:13.910Z,85.59
2018-02-10T17:27:43.309Z,85.70
2018-02-10T17:30:13.028Z,85.52
2018-02-10T17:32:42.552Z,86.04
2018-02-10T17:35:12.154Z,86.04
2018-02-10T17:37:41.677Z,86.41
2018-02-10T17:40:11.007Z,86.85
2018-02-10T17:42:40.956Z,86.54
2018-02-10T17:45:10.676Z,87.38
2018-02-10T17:47:40.393Z,86.72
2018-02-10T17:50:10.242Z,86.83
2018-02-10T17:52:39.843Z,87.67
2018-02-10T17:55:09.624Z,86.89
2018-02-10T17:57:39.184Z,87.14
2018-02-10T18:00:08.930Z,87.18
2018-02-10T18:02:38.338Z,87.28
2018-02-10T18:05:07.878Z,87.00
2018-02-10T18:07:37.408Z,87.00
2018-02-10T18:10:06.785Z,86.40
2018-02-10T18:12:36.585Z,86.06
2018-02-10T18:15:06.022Z,86.54
2018-02-10T18:17:35.665Z,86.08
2018-02-10T18:20:04.954Z,85.22
2018-02-10T18:22:34.396Z,85.45
2018-02-10T18:25:04.225Z,85.43
2018-02-10T18:27:34.010Z,85.74
2018-02-10T18:30:03.861Z,85.46
2018-02-10T18:32:33.296Z,85.36
2018-02-10T18:35:02.978Z,85.21
2018-02-10T18:37:32.334Z,84.53
2018-02-10T18:40:01.812Z,84.24
2018-02-10T18:42:31.345Z,84.25
2018-02-10T18:45:00.846Z,84.07
2018-02-10T18:47:30.261Z,84.04
2018-02-10T18:49:59.553Z,83.48
2018-02-10T18:52:29.164Z,82.90
2018-02-10T18:54:58.534Z,83.61
2018-02-10T18:57:27.984Z,84.00
2018-02-10T18:59:57.801Z,84.16
2018-02-10T19:02:27.210Z,84.10
2018-02-10T19:04:56.618Z,82.82
2018-02-10T19:07:26.008Z,84.08
2018-02-10T19:09:55.498Z,83.88
2018-02-10T19:12:25.138Z,84.60
2018-02-10T19:14:54.812Z,84.81
2018-02-10T19:17:24.242Z,84.23
2018-02-10T19:19:53.472Z,84.32
2018-02-10T19:22:22.790Z,85.24
2018-02-10T19:24:52.064Z,84.81
2018-02-10T19:27:21.536Z,85.91
2018-02-10T19:29:50.916Z,85.47
2018-02-10T19:32:20.505Z,85.76
2018-02-10T19:34:49.932Z,86.10
2018-02-10T19:37:19.241Z,86.42
2018-02-10T19:39:48.555Z,86.56
2018-02-10T19:42:17.967Z,87.00
2018-02-10T19:44:47.680Z,87.05
2018-02-10T19:47:16.746Z,86.93
2018-02-10T19:49:46.156Z,87.43
2018-02-10T19:52:15.726Z,87.10
2018-02-10T19:54:44.897Z,86.92
2018-02-10T19:57:14.489Z,86.97
2018-02-10T19:59:44.369Z,87.45
2018-02-10T20:02:13.880Z,88.49
2018-02-10T20:04:43.695Z,88.35
2018-02-10T20:07:13.721Z,88.52
2018-02-10T20:09:43.281Z,89.04
2018-02-10T20:12:12.740Z,89.30
2018-02-10T20:14:42.234Z,90.12
2018-02-10T20:17:11.699Z,89.75
2018-02-10T20:19:41.056Z,90.94
2018-02-10T20:22:10.933Z,90.58
2018-02-10T20:24:40.246Z,90.57
2018-02-10T20:27:09.282Z,91.10
2018-02-10T20:29:38.470Z,91.37
2018-02-10T20:32:07.506Z,90.75
2018-02-10T20:34:36.927Z,91.36
2018-02-10T20:37:06.205Z,91.40
2018-02-10T20:39:35.540Z,91.86
2018-02-10T20:42:04.739Z,91.31
2018-02-10T20:44:34.126Z,91.43
2018-02-10T20:47:03.405Z,90.71
2018-02-10T20:49:32.874Z,91.70
2018-02-10T20:52:02.278Z,90.91
2018-02-10T20:54:31.482Z,91.24
2018-02-10T20:57:00.891Z,91.50
2018-02-10T20:59:30.461Z,91.70
2018-02-10T21:01:59.562Z,91.54
2018-02-10T21:04:28.869Z,91.43
2018-02-10T21:06:58.046Z,91.76
2018-02-10T21:09:27.318Z,91.61
2018-02-10T21:11:57.181Z,91.56
2018-02-10T21:14:26.870Z,89.78
2018-02-10T21:16:56.097Z,90.52
2018-02-10T21:19:25.355Z,91.05
2018-02-10T21:21:54.685Z,90.26
2018-02-10T21:24:23.873Z,90.74
2018-02-10T21:26:53.165Z,90.78
2018-02-10T21:29:22.549Z,88.94
2018-02-10T21:31:51.995Z,89.08
2018-02-10T21:34:21.899Z,89.06
2018-02-10T21:36:51.018Z,87.89
2018-02-10T21:39:20.358Z,88.81
2018-02-10T21:41:49.465Z,89.16
2018-02-10T21:44:18.792Z,88.34
2018-02-10T21:46:48.164Z,89.35
2018-02-10T21:49:17.365Z,89.24
2018-02-10T21:51:46.786Z,88.35
2018-02-10T21:54:16.221Z,88.16
2018-02-10T21:56:45.830Z,88.62
2018-02-10T21:59:15.301Z,88.88
2018-02-10T22:01:44.285Z,88.86
2018-02-10T22:04:14.103Z,89.93
2018-02-10T22:06:43.437Z,89.01
2018-02-10T22:09:13.074Z,89.32
2018-02-10T22:11:42.553Z,88.55
2018-02-10T22:14:11.756Z,89.13
2018-02-10T22:16:40.946Z,88.99
2018-02-10T22:19:10.311Z,88.81
2018-02-10T22:21:39.546Z,89.37
2018-02-10T22:24:08.615Z,88.87
2018-02-10T22:26:37.973Z,88.92
2018-02-10T22:29:07.115Z,89.04
2018-02-10T22:31:36.387Z,90.02
2018-02-10T22:34:05.506Z,90.60
2018-02-10T22:36:34.856Z,89.66
2018-02-10T22:39:04.200Z,90.97
2018-02-10T22:41:33.301Z,90.33
2018-02-10T22:44:02.728Z,90.03
2018-02-10T22:46:31.898Z,90.00
2018-02-10T22:49:01.041Z,89.88
2018-02-10T22:51:30.297Z,89.77
2018-02-10T22:53:59.785Z,90.40
2018-02-10T22:56:30.021Z,90.45
2018-02-10T22:58:59.121Z,90.27
2018-02-10T23:01:28.134Z,90.83
2018-02-10T23:03:57.449Z,90.46
2018-02-10T23:06:27.127Z,90.32
2018-02-10T23:08:56.444Z,89.85
2018-02-10T23:11:25.664Z,89.82
2018-02-10T23:13:54.477Z,90.57
2018-02-10T23:16:23.692Z,89.56
2018-02-10T23:18:52.588Z,90.13
2018-02-10T23:21:21.530Z,91.62
2018-02-10T23:23:50.712Z,90.50
2018-02-10T23:26:20.304Z,91.04
2018-02-10T23:28:49.522Z,90.36
2018-02-10T23:31:18.670Z,90.49
2018-02-10T23:33:48.005Z,90.85
2018-02-10T23:36:17.092Z,90.68
2018-02-10T23:38:46.201Z,90.76
2018-02-10T23:41:15.333Z,90.43
2018-02-10T23:43:44.388Z,90.23
2018-02-10T23:46:13.635Z,89.91
2018-02-10T23:48:42.941Z,89.86
2018-02-10T23:51:12.443Z,89.80
2018-02-10T23:53:41.482Z,89.39
2018-02-10T23:56:10.599Z,88.58
2018-02-10T23:58:39.482Z,89.61
